createdAt,value
2023-04-15T00:00:55.545Z,1453.00
2023-04-15T00:01:55.600Z,1444.00
2023-04-15T00:02:55.771Z,1455.00
2023-04-15T00:03:55.593Z,1441.00
2023-04-15T00:04:55.554Z,1456.00
2023-04-15T00:05:55.518Z,1454.00
2023-04-15T00:06:55.497Z,1443.00
2023-04-15T00:07:55.503Z,1450.00
2023-04-15T00:08:55.515Z,1453.00
2023-04-15T00:09:55.482Z,1441.00
2023-04-15T00:10:55.466Z,1444.00
2023-04-15T00:11:55.459Z,1438.00
2023-04-15T00:12:55.489Z,1430.00
2023-04-15T00:13:55.529Z,1436.00
2023-04-15T00:14:55.574Z,1439.00
2023-04-15T00:15:55.584Z,1419.00
2023-04-15T00:16:55.687Z,1418.00
2023-04-15T00:17:55.743Z,1431.00
2023-04-15T00:18:55.722Z,1435.00
2023-04-15T00:19:55.747Z,1420.00
2023-04-15T00:20:55.733Z,1414.00
2023-04-15T00:21:55.789Z,1417.00
2023-04-15T00:22:55.808Z,1420.00
2023-04-15T00:23:55.853Z,1403.00
2023-04-15T00:24:55.884Z,1421.00
2023-04-15T00:25:55.926Z,1415.00
2023-04-15T00:26:55.937Z,1414.00
2023-04-15T00:27:55.993Z,1418.00
2023-04-15T00:28:56.001Z,1427.00
2023-04-15T00:29:56.065Z,1406.00
2023-04-15T00:30:56.153Z,1406.00
2023-04-15T00:31:56.116Z,1413.00
2023-04-15T00:32:56.228Z,1416.00
2023-04-15T00:33:56.197Z,1397.00
2023-04-15T00:34:56.224Z,1421.00
2023-04-15T00:35:56.276Z,1411.00
2023-04-15T00:36:56.316Z,1402.00
2023-04-15T00:37:56.342Z,1389.00
2023-04-15T00:38:56.361Z,1401.00
2023-04-15T00:39:56.396Z,1399.00
2023-04-15T00:40:56.430Z,1396.00
2023-04-15T00:41:56.496Z,1415.00
2023-04-15T00:42:56.524Z,1395.00
2023-04-15T00:43:56.517Z,1404.00
2023-04-15T00:44:56.648Z,1403.00
2023-04-15T00:45:56.645Z,1400.00
2023-04-15T00:46:56.634Z,1387.00
2023-04-15T00:47:56.698Z,1384.00
2023-04-15T00:48:56.721Z,1410.00
2023-04-15T00:49:56.758Z,1384.00
2023-04-15T00:50:56.786Z,1391.00
2023-04-15T00:51:56.794Z,1388.00
2023-04-15T00:52:56.833Z,1372.00
2023-04-15T00:53:56.845Z,1380.00
2023-04-15T00:54:56.909Z,1383.00
2023-04-15T00:55:56.924Z,1378.00
2023-04-15T00:56:56.985Z,1388.00
2023-04-15T00:57:56.969Z,1396.00
2023-04-15T00:58:57.027Z,1374.00
2023-04-15T00:59:57.093Z,1386.00
2023-04-15T01:00:57.113Z,1383.00
2023-04-15T01:01:57.222Z,1378.00
2023-04-15T01:02:57.345Z,1361.00
2023-04-15T01:03:57.366Z,1380.00
2023-04-15T01:04:57.243Z,1368.00
2023-04-15T01:05:57.243Z,1359.00
2023-04-15T01:06:57.298Z,1365.00
2023-04-15T01:07:57.365Z,1364.00
2023-04-15T01:08:57.354Z,1363.00
2023-04-15T01:09:57.402Z,1361.00
2023-04-15T01:10:57.410Z,1373.00
2023-04-15T01:11:57.481Z,1361.00
2023-04-15T01:12:57.507Z,1371.00
2023-04-15T01:13:57.509Z,1357.00
2023-04-15T01:14:57.565Z,1353.00
2023-04-15T01:15:57.677Z,1355.00
2023-04-15T01:16:57.631Z,1347.00
2023-04-15T01:17:57.741Z,1369.00
2023-04-15T01:18:57.814Z,1358.00
2023-04-15T01:19:57.736Z,1356.00
2023-04-15T01:20:57.784Z,1340.00
2023-04-15T01:21:57.820Z,1343.00
2023-04-15T01:22:57.819Z,1350.00
2023-04-15T01:23:57.864Z,1349.00
2023-04-15T01:24:57.912Z,1354.00
2023-04-15T01:25:57.936Z,1351.00
2023-04-15T01:26:57.996Z,1353.00
2023-04-15T01:27:57.994Z,1330.00
2023-04-15T01:28:58.156Z,1342.00
2023-04-15T01:29:58.091Z,1344.00
2023-04-15T01:30:58.089Z,1337.00
2023-04-15T01:31:58.311Z,1331.00
2023-04-15T01:32:58.239Z,1331.00
2023-04-15T01:33:58.211Z,1334.00
2023-04-15T01:34:58.250Z,1330.00
2023-04-15T01:35:58.291Z,1334.00
2023-04-15T01:36:58.314Z,1325.00
2023-04-15T01:37:58.362Z,1328.00
2023-04-15T01:38:58.520Z,1337.00
2023-04-15T01:39:58.417Z,1331.00
2023-04-15T01:40:58.442Z,1325.00
2023-04-15T01:41:58.475Z,1317.00
2023-04-15T01:42:58.512Z,1307.00
2023-04-15T01:43:58.552Z,1324.00
2023-04-15T01:44:58.640Z,1332.00
2023-04-15T01:45:58.642Z,1311.00
2023-04-15T01:46:58.758Z,1321.00
2023-04-15T01:47:58.790Z,1324.00
2023-04-15T01:48:58.891Z,1316.00
2023-04-15T01:49:58.766Z,1314.00
2023-04-15T01:50:58.801Z,1313.00
2023-04-15T01:51:58.828Z,1325.00
2023-04-15T01:52:58.864Z,1329.00
2023-04-15T01:53:58.936Z,1321.00
2023-04-15T01:54:58.940Z,1312.00
2023-04-15T01:55:58.952Z,1312.00
2023-04-15T01:56:59.065Z,1316.00
2023-04-15T01:57:59.057Z,1318.00
2023-04-15T01:58:59.253Z,1325.00
2023-04-15T01:59:59.145Z,1300.00
2023-04-15T02:00:59.151Z,1306.00
2023-04-15T02:01:59.220Z,1316.00
2023-04-15T02:02:59.274Z,1314.00
2023-04-15T02:03:59.296Z,1300.00
2023-04-15T02:04:59.298Z,1316.00
2023-04-15T02:05:59.302Z,1297.00
2023-04-15T02:06:59.341Z,1308.00
2023-04-15T02:07:59.349Z,1293.00
2023-04-15T02:08:59.592Z,1314.00
2023-04-15T02:09:59.469Z,1293.00
2023-04-15T02:10:59.505Z,1288.00
2023-04-15T02:11:59.551Z,1300.00
2023-04-15T02:12:59.528Z,1293.00
2023-04-15T02:13:59.556Z,1299.00
2023-04-15T02:14:59.624Z,1286.00
2023-04-15T02:15:59.641Z,1284.00
2023-04-15T02:16:59.729Z,1279.00
2023-04-15T02:17:59.842Z,1298.00
2023-04-15T02:19:00.015Z,1293.00
2023-04-15T02:19:59.772Z,1296.00
2023-04-15T02:20:59.798Z,1292.00
2023-04-15T02:21:59.854Z,1291.00
2023-04-15T02:22:59.874Z,1288.00
2023-04-15T02:23:59.924Z,1278.00
2023-04-15T02:24:59.953Z,1277.00
2023-04-15T02:25:59.978Z,1281.00
2023-04-15T02:27:00.013Z,1274.00
2023-04-15T02:28:00.050Z,1277.00
2023-04-15T02:29:00.363Z,1277.00
2023-04-15T02:30:00.135Z,1274.00
2023-04-15T02:31:00.154Z,1287.00
2023-04-15T02:32:00.281Z,1273.00
2023-04-15T02:33:00.244Z,1269.00
2023-04-15T02:34:00.242Z,1274.00
2023-04-15T02:35:00.314Z,1263.00
2023-04-15T02:36:00.318Z,1256.00
2023-04-15T02:37:00.338Z,1262.00
2023-04-15T02:38:00.385Z,1277.00
2023-04-15T02:39:00.797Z,1260.00
2023-04-15T02:40:00.449Z,1267.00
2023-04-15T02:41:00.495Z,1276.00
2023-04-15T02:42:00.509Z,1271.00
2023-04-15T02:43:00.550Z,1267.00
2023-04-15T02:44:00.577Z,1260.00
2023-04-15T02:45:00.633Z,1270.00
2023-04-15T02:46:00.678Z,1264.00
2023-04-15T02:47:00.693Z,1272.00
2023-04-15T02:48:00.727Z,1259.00
2023-04-15T02:49:00.892Z,1259.00
2023-04-15T02:50:00.803Z,1254.00
2023-04-15T02:51:00.809Z,1259.00
2023-04-15T02:52:00.849Z,1251.00
2023-04-15T02:53:00.874Z,1258.00
2023-04-15T02:54:00.889Z,1230.00
2023-04-15T02:55:00.962Z,1243.00
2023-04-15T02:56:01.000Z,1239.00
2023-04-15T02:57:01.067Z,1259.00
2023-04-15T02:58:01.023Z,1244.00
2023-04-15T02:59:01.391Z,1241.00
2023-04-15T03:00:01.157Z,1243.00
2023-04-15T03:01:01.171Z,1252.00
2023-04-15T03:02:01.236Z,1247.00
2023-04-15T03:03:01.321Z,1243.00
2023-04-15T03:04:01.314Z,1228.00
2023-04-15T03:05:01.294Z,1224.00
2023-04-15T03:06:01.344Z,1229.00
2023-04-15T03:07:01.374Z,1222.00
2023-04-15T03:08:01.499Z,1221.00
2023-04-15T03:09:01.722Z,1224.00
2023-04-15T03:10:01.451Z,1217.00
2023-04-15T03:11:01.518Z,1216.00
2023-04-15T03:12:01.543Z,1227.00
2023-04-15T03:13:01.560Z,1233.00
2023-04-15T03:14:01.598Z,1207.00
2023-04-15T03:15:01.662Z,1222.00
2023-04-15T03:16:01.665Z,1227.00
2023-04-15T03:17:01.689Z,1208.00
2023-04-15T03:18:01.818Z,1207.00
2023-04-15T03:19:01.944Z,1216.00
2023-04-15T03:20:01.816Z,1214.00
2023-04-15T03:21:01.856Z,1206.00
2023-04-15T03:22:01.879Z,1218.00
2023-04-15T03:23:01.954Z,1211.00
2023-04-15T03:24:01.948Z,1187.00
2023-04-15T03:25:01.946Z,1194.00
2023-04-15T03:26:02.051Z,1201.00
2023-04-15T03:27:02.061Z,1204.00
2023-04-15T03:28:02.063Z,1214.00
2023-04-15T03:29:02.278Z,1200.00
2023-04-15T03:30:02.145Z,1203.00
2023-04-15T03:31:02.199Z,1190.00
2023-04-15T03:32:02.181Z,1183.00
2023-04-15T03:33:02.280Z,1197.00
2023-04-15T03:34:02.258Z,1179.00
2023-04-15T03:35:02.319Z,1187.00
2023-04-15T03:36:02.329Z,1192.00
2023-04-15T03:37:02.379Z,1190.00
2023-04-15T03:38:02.410Z,1194.00
2023-04-15T03:39:02.647Z,1179.00
2023-04-15T03:40:02.469Z,1181.00
2023-04-15T03:41:02.477Z,1182.00
2023-04-15T03:42:02.508Z,1180.00
2023-04-15T03:43:02.551Z,1175.00
2023-04-15T03:44:02.634Z,1171.00
2023-04-15T03:45:02.652Z,1177.00
2023-04-15T03:46:02.681Z,1187.00
2023-04-15T03:47:02.687Z,1174.00
2023-04-15T03:48:16.089Z,1156.00
2023-04-15T03:49:03.934Z,1157.00
2023-04-15T03:50:02.715Z,1158.00
2023-04-15T03:51:02.683Z,1166.00
2023-04-15T03:52:02.693Z,1168.00
2023-04-15T03:53:02.693Z,1165.00
2023-04-15T03:54:02.670Z,1176.00
2023-04-15T03:55:02.699Z,1169.00
2023-04-15T03:56:02.659Z,1164.00
2023-04-15T03:57:02.649Z,1173.00
2023-04-15T03:58:02.643Z,1163.00
2023-04-15T03:59:03.093Z,1173.00
2023-04-15T04:00:02.628Z,1164.00
2023-04-15T04:01:02.654Z,1159.00
2023-04-15T04:02:02.738Z,1160.00
2023-04-15T04:03:02.791Z,1162.00
2023-04-15T04:04:02.763Z,1149.00
2023-04-15T04:05:02.750Z,1144.00
2023-04-15T04:06:02.748Z,1151.00
2023-04-15T04:07:02.786Z,1132.00
2023-04-15T04:08:02.819Z,1151.00
2023-04-15T04:09:03.100Z,1145.00
2023-04-15T04:10:02.875Z,1143.00
2023-04-15T04:11:02.909Z,1126.00
2023-04-15T04:12:02.964Z,1134.00
2023-04-15T04:13:02.974Z,1133.00
2023-04-15T04:14:03.037Z,1133.00
2023-04-15T04:15:03.091Z,1150.00
2023-04-15T04:16:03.157Z,1110.00
2023-04-15T04:17:03.150Z,1118.00
2023-04-15T04:18:03.200Z,1141.00
2023-04-15T04:19:03.381Z,1124.00
2023-04-15T04:20:03.220Z,1117.00
2023-04-15T04:21:03.252Z,1122.00
2023-04-15T04:22:03.281Z,1115.00
2023-04-15T04:23:03.310Z,1114.00
2023-04-15T04:24:03.302Z,1111.00
2023-04-15T04:25:03.370Z,1104.00
2023-04-15T04:26:03.385Z,1118.00
2023-04-15T04:27:03.420Z,1103.00
2023-04-15T04:28:03.485Z,1115.00
2023-04-15T04:29:03.827Z,1106.00
2023-04-15T04:30:03.531Z,1110.00
2023-04-15T04:31:03.574Z,1114.00
2023-04-15T04:32:03.635Z,1101.00
2023-04-15T04:33:03.670Z,1103.00
2023-04-15T04:34:03.631Z,1092.00
2023-04-15T04:35:03.729Z,1092.00
2023-04-15T04:36:03.729Z,1105.00
2023-04-15T04:37:03.734Z,1103.00
2023-04-15T04:38:03.806Z,1107.00
2023-04-15T04:39:03.858Z,1094.00
2023-04-15T04:40:03.858Z,1094.00
2023-04-15T04:41:03.866Z,1099.00
2023-04-15T04:42:03.896Z,1076.00
2023-04-15T04:43:03.942Z,1098.00
2023-04-15T04:44:03.980Z,1088.00
2023-04-15T04:45:04.016Z,1110.00
2023-04-15T04:46:04.095Z,1089.00
2023-04-15T04:47:04.095Z,1095.00
2023-04-15T04:48:04.133Z,1076.00
2023-04-15T04:49:04.388Z,1085.00
2023-04-15T04:50:04.196Z,1071.00
2023-04-15T04:51:04.187Z,1075.00
2023-04-15T04:52:04.240Z,1073.00
2023-04-15T04:53:04.271Z,1081.00
2023-04-15T04:54:04.324Z,1065.00
2023-04-15T04:55:04.358Z,1063.00
2023-04-15T04:56:04.385Z,1072.00
2023-04-15T04:57:04.444Z,1067.00
2023-04-15T04:58:04.455Z,1059.00
2023-04-15T04:59:04.511Z,1050.00
2023-04-15T05:00:04.566Z,1059.00
2023-04-15T05:01:04.596Z,1054.00
2023-04-15T05:02:04.660Z,1056.00
2023-04-15T05:03:04.705Z,1053.00
2023-04-15T05:04:04.885Z,1064.00
2023-04-15T05:05:04.732Z,1051.00
2023-04-15T05:06:04.715Z,1037.00
2023-04-15T05:07:04.742Z,1060.00
2023-04-15T05:08:04.794Z,1053.00
2023-04-15T05:09:04.847Z,1042.00
2023-04-15T05:10:04.898Z,1039.00
2023-04-15T05:11:04.928Z,1045.00
2023-04-15T05:12:04.976Z,1044.00
2023-04-15T05:13:04.964Z,1045.00
2023-04-15T05:14:05.018Z,1036.00
2023-04-15T05:15:05.065Z,1029.00
2023-04-15T05:16:05.088Z,1043.00
2023-04-15T05:17:05.117Z,1020.00
2023-04-15T05:18:05.201Z,1018.00
2023-04-15T05:19:05.214Z,1021.00
2023-04-15T05:20:05.227Z,1039.00
2023-04-15T05:21:05.283Z,1030.00
2023-04-15T05:22:05.297Z,1028.00
2023-04-15T05:23:05.336Z,1031.00
2023-04-15T05:24:05.364Z,1030.00
2023-04-15T05:25:05.392Z,1009.00
2023-04-15T05:26:05.428Z,1020.00
2023-04-15T05:27:05.460Z,1008.00
2023-04-15T05:28:05.503Z,1019.00
2023-04-15T05:29:05.520Z,1016.00
2023-04-15T05:30:05.583Z,1012.00
2023-04-15T05:31:05.648Z,1013.00
2023-04-15T05:32:05.642Z,1015.00
2023-04-15T05:33:05.651Z,1024.00
2023-04-15T05:34:05.733Z,1013.00
2023-04-15T05:35:05.770Z,1011.00
2023-04-15T05:36:05.772Z,1018.00
2023-04-15T05:37:05.812Z,1013.00
2023-04-15T05:38:05.877Z,1009.00
2023-04-15T05:39:05.885Z,997.00
2023-04-15T05:40:05.935Z,1005.00
2023-04-15T05:41:05.967Z,1025.00
2023-04-15T05:42:06.119Z,998.00
2023-04-15T05:43:06.025Z,996.00
2023-04-15T05:44:06.063Z,1004.00
2023-04-15T05:45:06.100Z,1001.00
2023-04-15T05:46:06.296Z,995.00
2023-04-15T05:47:06.198Z,1009.00
2023-04-15T05:48:06.216Z,992.00
2023-04-15T05:49:06.255Z,1000.00
2023-04-15T05:50:06.302Z,976.00
2023-04-15T05:51:06.358Z,986.00
2023-04-15T05:52:06.395Z,983.00
2023-04-15T05:53:06.386Z,989.00
2023-04-15T05:54:06.403Z,985.00
2023-04-15T05:55:06.500Z,971.00
2023-04-15T05:56:06.495Z,976.00
2023-04-15T05:57:06.556Z,983.00
2023-04-15T05:58:06.549Z,976.00
2023-04-15T05:59:06.574Z,972.00
2023-04-15T06:00:06.640Z,972.00
2023-04-15T06:01:06.662Z,971.00
2023-04-15T06:02:06.720Z,968.00
2023-04-15T06:03:06.845Z,966.00
2023-04-15T06:04:06.838Z,975.00
2023-04-15T06:05:06.867Z,962.00
2023-04-15T06:06:06.826Z,963.00
2023-04-15T06:07:06.869Z,957.00
2023-04-15T06:08:06.882Z,963.00
2023-04-15T06:09:06.942Z,948.00
2023-04-15T06:10:06.980Z,959.00
2023-04-15T06:11:06.996Z,960.00
2023-04-15T06:12:07.046Z,951.00
2023-04-15T06:13:07.073Z,948.00
2023-04-15T06:14:07.080Z,968.00
2023-04-15T06:15:07.114Z,943.00
2023-04-15T06:16:07.189Z,945.00
2023-04-15T06:17:07.216Z,944.00
2023-04-15T06:18:07.226Z,922.00
2023-04-15T06:19:07.244Z,949.00
2023-04-15T06:20:07.299Z,949.00
2023-04-15T06:21:07.309Z,960.00
2023-04-15T06:22:07.339Z,947.00
2023-04-15T06:23:07.396Z,945.00
2023-04-15T06:24:07.402Z,930.00
2023-04-15T06:25:07.456Z,931.00
2023-04-15T06:26:07.487Z,935.00
2023-04-15T06:27:07.506Z,934.00
2023-04-15T06:28:07.522Z,903.00
2023-04-15T06:29:07.576Z,922.00
2023-04-15T06:30:07.633Z,918.00
2023-04-15T06:31:07.703Z,918.00
2023-04-15T06:32:07.660Z,931.00
2023-04-15T06:33:07.719Z,937.00
2023-04-15T06:34:07.774Z,923.00
2023-04-15T06:35:07.800Z,909.00
2023-04-15T06:36:07.827Z,909.00
2023-04-15T06:37:07.827Z,911.00
2023-04-15T06:38:07.859Z,917.00
2023-04-15T06:39:07.925Z,918.00
2023-04-15T06:40:07.957Z,892.00
2023-04-15T06:41:07.981Z,912.00
2023-04-15T06:42:08.060Z,908.00
2023-04-15T06:43:08.049Z,901.00
2023-04-15T06:44:08.112Z,906.00
2023-04-15T06:45:08.139Z,914.00
2023-04-15T06:46:08.229Z,893.00
2023-04-15T06:47:08.220Z,906.00
2023-04-15T06:48:08.229Z,924.00
2023-04-15T06:49:08.290Z,917.00
2023-04-15T06:50:08.313Z,912.00
2023-04-15T06:51:08.354Z,910.00
2023-04-15T06:52:08.390Z,901.00
2023-04-15T06:53:08.437Z,897.00
2023-04-15T06:54:08.461Z,941.00
2023-04-15T06:55:08.506Z,939.00
2023-04-15T06:56:08.547Z,917.00
2023-04-15T06:57:08.598Z,914.00
2023-04-15T06:58:08.599Z,932.00
2023-04-15T06:59:08.627Z,899.00
2023-04-15T07:00:08.723Z,904.00
2023-04-15T07:01:08.743Z,893.00
2023-04-15T07:02:08.802Z,886.00
2023-04-15T07:03:08.809Z,905.00
2023-04-15T07:04:08.890Z,914.00
2023-04-15T07:05:08.885Z,920.00
2023-04-15T07:06:08.896Z,914.00
2023-04-15T07:07:08.921Z,935.00
2023-04-15T07:08:08.946Z,923.00
2023-04-15T07:09:08.975Z,951.00
2023-04-15T07:10:09.019Z,956.00
2023-04-15T07:11:09.078Z,946.00
2023-04-15T07:12:09.082Z,940.00
2023-04-15T07:13:09.140Z,954.00
2023-04-15T07:14:09.167Z,943.00
2023-04-15T07:15:09.205Z,937.00
2023-04-15T07:16:09.204Z,924.00
2023-04-15T07:17:09.327Z,929.00
2023-04-15T07:18:09.285Z,907.00
2023-04-15T07:19:09.313Z,934.00
2023-04-15T07:20:09.320Z,924.00
2023-04-15T07:21:09.374Z,913.00
2023-04-15T07:22:09.379Z,912.00
2023-04-15T07:23:09.429Z,919.00
2023-04-15T07:24:09.425Z,940.00
2023-04-15T07:25:09.469Z,938.00
2023-04-15T07:26:09.463Z,942.00
2023-04-15T07:27:09.507Z,956.00
2023-04-15T07:28:09.506Z,945.00
2023-04-15T07:29:09.518Z,969.00
2023-04-15T07:30:09.554Z,951.00
2023-04-15T07:31:09.636Z,948.00
2023-04-15T07:32:09.629Z,958.00
2023-04-15T07:33:09.634Z,964.00
2023-04-15T07:34:09.697Z,969.00
2023-04-15T07:35:09.727Z,959.00
2023-04-15T07:36:09.738Z,947.00
2023-04-15T07:37:09.750Z,955.00
2023-04-15T07:38:09.778Z,950.00
2023-04-15T07:39:09.761Z,950.00
2023-04-15T07:40:09.800Z,943.00
2023-04-15T07:41:09.850Z,947.00
2023-04-15T07:42:09.870Z,937.00
2023-04-15T07:43:09.860Z,956.00
2023-04-15T07:44:09.890Z,960.00
2023-04-15T07:45:09.907Z,942.00
2023-04-15T07:46:09.945Z,946.00
2023-04-15T07:47:09.963Z,967.00
2023-04-15T07:48:09.996Z,948.00
2023-04-15T07:49:09.969Z,964.00
2023-04-15T07:50:09.987Z,967.00
2023-04-15T07:51:10.021Z,965.00
2023-04-15T07:52:10.012Z,968.00
2023-04-15T07:53:10.047Z,940.00
2023-04-15T07:54:10.080Z,944.00
2023-04-15T07:55:10.081Z,941.00
2023-04-15T07:56:10.099Z,945.00
2023-04-15T07:57:10.113Z,932.00
2023-04-15T07:58:10.143Z,942.00
2023-04-15T07:59:10.163Z,946.00
2023-04-15T08:00:10.158Z,947.00
2023-04-15T08:01:10.184Z,945.00
2023-04-15T08:02:10.244Z,963.00
2023-04-15T08:03:10.300Z,941.00
2023-04-15T08:04:10.302Z,934.00
2023-04-15T08:05:10.298Z,948.00
2023-04-15T08:06:10.238Z,931.00
2023-04-15T08:07:10.268Z,958.00
2023-04-15T08:08:10.285Z,940.00
2023-04-15T08:09:10.277Z,947.00
2023-04-15T08:10:10.351Z,952.00
2023-04-15T08:11:10.295Z,949.00
2023-04-15T08:12:10.286Z,949.00
2023-04-15T08:13:10.335Z,942.00
2023-04-15T08:14:10.352Z,949.00
2023-04-15T08:15:10.359Z,951.00
2023-04-15T08:16:10.394Z,933.00
2023-04-15T08:17:10.376Z,945.00
2023-04-15T08:18:10.399Z,943.00
2023-04-15T08:19:10.382Z,943.00
2023-04-15T08:20:10.411Z,937.00
2023-04-15T08:21:10.402Z,937.00
2023-04-15T08:22:18.087Z,938.00
2023-04-15T08:23:11.445Z,939.00
2023-04-15T08:24:10.394Z,934.00
2023-04-15T08:25:10.410Z,929.00
2023-04-15T08:26:10.359Z,925.00
2023-04-15T08:27:10.375Z,926.00
2023-04-15T08:28:10.360Z,933.00
2023-04-15T08:29:10.400Z,917.00
2023-04-15T08:30:10.363Z,916.00
2023-04-15T08:31:10.337Z,917.00
2023-04-15T08:32:10.325Z,929.00
2023-04-15T08:33:10.347Z,914.00
2023-04-15T08:34:10.326Z,903.00
2023-04-15T08:35:10.349Z,902.00
2023-04-15T08:36:10.286Z,908.00
2023-04-15T08:37:11.554Z,906.00
2023-04-15T08:38:10.305Z,906.00
2023-04-15T08:39:10.277Z,899.00
2023-04-15T08:40:10.295Z,917.00
2023-04-15T08:41:10.300Z,890.00
2023-04-15T08:42:10.258Z,901.00
2023-04-15T08:43:10.270Z,905.00
2023-04-15T08:44:10.253Z,911.00
2023-04-15T08:45:10.273Z,910.00
2023-04-15T08:46:10.233Z,911.00
2023-04-15T08:47:10.542Z,908.00
2023-04-15T08:48:10.248Z,911.00
2023-04-15T08:49:10.201Z,902.00
2023-04-15T08:50:10.259Z,909.00
2023-04-15T08:51:10.218Z,907.00
2023-04-15T08:52:10.231Z,915.00
2023-04-15T08:53:10.231Z,908.00
2023-04-15T08:54:10.213Z,910.00
2023-04-15T08:55:10.219Z,914.00
2023-04-15T08:56:10.241Z,906.00
2023-04-15T08:57:10.212Z,904.00
2023-04-15T08:58:10.220Z,898.00
2023-04-15T08:59:10.188Z,900.00
2023-04-15T09:00:10.217Z,886.00
2023-04-15T09:01:10.236Z,901.00
2023-04-15T09:02:10.222Z,893.00
2023-04-15T09:03:10.282Z,888.00
2023-04-15T09:04:10.274Z,899.00
2023-04-15T09:05:10.166Z,893.00
2023-04-15T09:06:10.198Z,885.00
2023-04-15T09:07:10.177Z,890.00
2023-04-15T09:08:10.243Z,889.00
2023-04-15T09:09:10.187Z,883.00
2023-04-15T09:10:10.175Z,894.00
2023-04-15T09:11:10.159Z,887.00
2023-04-15T09:12:10.187Z,884.00
2023-04-15T09:13:10.154Z,873.00
2023-04-15T09:14:10.140Z,883.00
2023-04-15T09:15:10.176Z,884.00
2023-04-15T09:16:10.191Z,868.00
2023-04-15T09:17:10.122Z,883.00
2023-04-15T09:18:10.135Z,881.00
2023-04-15T09:19:10.141Z,885.00
2023-04-15T09:20:10.162Z,888.00
2023-04-15T09:21:10.116Z,875.00
2023-04-15T09:22:10.159Z,873.00
2023-04-15T09:23:10.141Z,879.00
2023-04-15T09:24:10.181Z,885.00
2023-04-15T09:25:10.198Z,881.00
2023-04-15T09:26:10.130Z,883.00
2023-04-15T09:27:10.140Z,878.00
2023-04-15T09:28:10.167Z,875.00
2023-04-15T09:29:10.176Z,867.00
2023-04-15T09:30:10.192Z,876.00
2023-04-15T09:31:10.239Z,880.00
2023-04-15T09:32:10.225Z,885.00
2023-04-15T09:33:10.236Z,888.00
2023-04-15T09:34:10.283Z,878.00
2023-04-15T09:35:10.328Z,882.00
2023-04-15T09:36:10.373Z,871.00
2023-04-15T09:37:10.558Z,875.00
2023-04-15T09:38:10.428Z,879.00
2023-04-15T09:39:10.450Z,876.00
2023-04-15T09:40:10.455Z,872.00
2023-04-15T09:41:10.496Z,863.00
2023-04-15T09:42:10.537Z,867.00
2023-04-15T09:43:10.588Z,862.00
2023-04-15T09:44:10.613Z,868.00
2023-04-15T09:45:10.656Z,863.00
2023-04-15T09:46:10.701Z,864.00
2023-04-15T09:47:10.698Z,858.00
2023-04-15T09:48:10.799Z,852.00
2023-04-15T09:49:10.808Z,856.00
2023-04-15T09:50:10.888Z,852.00
2023-04-15T09:51:10.908Z,865.00
2023-04-15T09:52:10.942Z,866.00
2023-04-15T09:53:11.040Z,869.00
2023-04-15T09:54:11.069Z,861.00
2023-04-15T09:55:11.153Z,862.00
2023-04-15T09:56:11.156Z,855.00
2023-04-15T09:57:11.181Z,852.00
2023-04-15T09:58:11.219Z,852.00
2023-04-15T09:59:11.296Z,835.00
2023-04-15T10:00:11.399Z,845.00
2023-04-15T10:01:11.428Z,840.00
2023-04-15T10:02:11.536Z,839.00
2023-04-15T10:03:11.721Z,839.00
2023-04-15T10:04:11.639Z,839.00
2023-04-15T10:05:11.648Z,843.00
2023-04-15T10:06:11.685Z,836.00
2023-04-15T10:07:11.755Z,850.00
2023-04-15T10:08:11.794Z,849.00
2023-04-15T10:09:11.860Z,828.00
2023-04-15T10:10:11.947Z,825.00
2023-04-15T10:11:11.999Z,831.00
2023-04-15T10:12:12.066Z,832.00
2023-04-15T10:13:12.116Z,836.00
2023-04-15T10:14:12.193Z,823.00
2023-04-15T10:15:12.268Z,828.00
2023-04-15T10:16:12.353Z,836.00
2023-04-15T10:17:12.352Z,823.00
2023-04-15T10:18:12.437Z,829.00
2023-04-15T10:19:12.482Z,837.00
2023-04-15T10:20:12.566Z,822.00
2023-04-15T10:21:12.640Z,814.00
2023-04-15T10:22:12.699Z,810.00
2023-04-15T10:23:13.523Z,819.00
2023-04-15T10:24:12.799Z,806.00
2023-04-15T10:25:12.876Z,819.00
2023-04-15T10:26:12.899Z,811.00
2023-04-15T10:27:13.004Z,806.00
2023-04-15T10:28:13.041Z,809.00
2023-04-15T10:29:13.141Z,821.00
2023-04-15T10:30:13.212Z,822.00
2023-04-15T10:31:13.278Z,818.00
2023-04-15T10:32:13.276Z,805.00
2023-04-15T10:33:13.367Z,821.00
2023-04-15T10:34:13.399Z,811.00
2023-04-15T10:35:13.494Z,798.00
2023-04-15T10:36:13.549Z,814.00
2023-04-15T10:37:13.631Z,802.00
2023-04-15T10:38:13.680Z,802.00
2023-04-15T10:39:13.717Z,799.00
2023-04-15T10:40:13.909Z,810.00
2023-04-15T10:41:13.836Z,777.00
2023-04-15T10:42:13.977Z,789.00
2023-04-15T10:43:13.954Z,794.00
2023-04-15T10:44:14.005Z,813.00
2023-04-15T10:45:14.082Z,789.00
2023-04-15T10:46:14.147Z,790.00
2023-04-15T10:47:14.181Z,776.00
2023-04-15T10:48:14.248Z,783.00
2023-04-15T10:49:14.328Z,797.00
2023-04-15T10:50:14.362Z,787.00
2023-04-15T10:51:14.396Z,788.00
2023-04-15T10:52:14.466Z,780.00
2023-04-15T10:53:14.515Z,787.00
2023-04-15T10:54:15.562Z,779.00
2023-04-15T10:55:14.690Z,778.00
2023-04-15T10:56:14.686Z,791.00
2023-04-15T10:57:14.747Z,777.00
2023-04-15T10:58:14.810Z,776.00
2023-04-15T10:59:14.876Z,782.00
2023-04-15T11:00:14.938Z,795.00
2023-04-15T11:01:14.934Z,789.00
2023-04-15T11:02:15.078Z,794.00
2023-04-15T11:03:15.182Z,771.00
2023-04-15T11:04:15.163Z,785.00
2023-04-15T11:05:15.186Z,788.00
2023-04-15T11:06:15.226Z,769.00
2023-04-15T11:07:15.295Z,798.00
2023-04-15T11:08:15.333Z,770.00
2023-04-15T11:09:15.369Z,768.00
2023-04-15T11:10:15.446Z,768.00
2023-04-15T11:11:15.460Z,783.00
2023-04-15T11:12:15.525Z,771.00
2023-04-15T11:13:15.580Z,768.00
2023-04-15T11:14:15.607Z,782.00
2023-04-15T11:15:15.706Z,765.00
2023-04-15T11:16:15.789Z,779.00
2023-04-15T11:17:15.813Z,775.00
2023-04-15T11:18:15.852Z,760.00
2023-04-15T11:19:15.936Z,775.00
2023-04-15T11:20:16.003Z,755.00
2023-04-15T11:21:16.007Z,763.00
2023-04-15T11:22:16.058Z,765.00
2023-04-15T11:23:16.179Z,752.00
2023-04-15T11:24:16.195Z,755.00
2023-04-15T11:25:16.250Z,750.00
2023-04-15T11:26:16.245Z,747.00
2023-04-15T11:27:16.312Z,764.00
2023-04-15T11:28:16.394Z,760.00
2023-04-15T11:29:16.401Z,738.00
2023-04-15T11:30:16.469Z,744.00
2023-04-15T11:31:16.582Z,737.00
2023-04-15T11:32:16.579Z,747.00
2023-04-15T11:33:16.586Z,739.00
2023-04-15T11:34:16.644Z,748.00
2023-04-15T11:35:16.710Z,747.00
2023-04-15T11:36:16.778Z,759.00
2023-04-15T11:37:16.812Z,752.00
2023-04-15T11:38:16.839Z,748.00
2023-04-15T11:39:16.887Z,751.00
2023-04-15T11:40:17.383Z,760.00
2023-04-15T11:41:16.967Z,755.00
2023-04-15T11:42:17.056Z,768.00
2023-04-15T11:43:17.105Z,745.00
2023-04-15T11:44:17.106Z,763.00
2023-04-15T11:45:18.068Z,761.00
2023-04-15T11:46:17.350Z,751.00
2023-04-15T11:47:17.247Z,747.00
2023-04-15T11:48:17.262Z,761.00
2023-04-15T11:49:17.329Z,759.00
2023-04-15T11:50:17.385Z,751.00
2023-04-15T11:51:17.447Z,753.00
2023-04-15T11:52:17.436Z,738.00
2023-04-15T11:53:17.521Z,751.00
2023-04-15T11:54:17.549Z,754.00
2023-04-15T11:55:17.608Z,760.00
2023-04-15T11:56:17.637Z,753.00
2023-04-15T11:57:17.711Z,747.00
2023-04-15T11:58:17.759Z,750.00
2023-04-15T11:59:17.824Z,753.00
2023-04-15T12:00:17.832Z,737.00
2023-04-15T12:01:17.905Z,755.00
2023-04-15T12:02:18.181Z,752.00
2023-04-15T12:03:18.112Z,760.00
2023-04-15T12:04:19.000Z,754.00
2023-04-15T12:05:18.142Z,764.00
2023-04-15T12:06:18.167Z,741.00
2023-04-15T12:07:18.206Z,742.00
2023-04-15T12:08:18.239Z,748.00
2023-04-15T12:09:18.274Z,749.00
2023-04-15T12:10:18.310Z,739.00
2023-04-15T12:11:18.378Z,732.00
2023-04-15T12:12:18.389Z,729.00
2023-04-15T12:13:18.457Z,720.00
2023-04-15T12:14:18.522Z,752.00
2023-04-15T12:15:18.576Z,736.00
2023-04-15T12:16:18.697Z,719.00
2023-04-15T12:17:18.654Z,738.00
2023-04-15T12:18:18.741Z,734.00